sensor_id;sensor_type;location;lat;lon;timestamp;temperature;humidity
2226;DHT22;1119;48.288;8.726;2023-12-07T00:02:01;1.80;99.90
2226;DHT22;1119;48.288;8.726;2023-12-07T00:04:29;1.80;99.90
2226;DHT22;1119;48.288;8.726;2023-12-07T00:06:57;1.80;99.90
2226;DHT22;1119;48.288;8.726;2023-12-07T00:09:24;1.80;99.90
2226;DHT22;1119;48.288;8.726;2023-12-07T00:11:51;1.80;99.90
2226;DHT22;1119;48.288;8.726;2023-12-07T00:14:19;1.80;99.90
2226;DHT22;1119;48.288;8.726;2023-12-07T00:16:46;1.80;99.90
2226;DHT22;1119;48.288;8.726;2023-12-07T00:19:14;1.90;99.90
2226;DHT22;1119;48.288;8.726;2023-12-07T00:21:42;1.90;99.90
2226;DHT22;1119;48.288;8.726;2023-12-07T00:24:09;1.80;99.90
2226;DHT22;1119;48.288;8.726;2023-12-07T00:26:37;1.80;99.90
2226;DHT22;1119;48.288;8.726;2023-12-07T00:29:05;1.80;99.90
2226;DHT22;1119;48.288;8.726;2023-12-07T00:31:32;1.80;99.90
2226;DHT22;1119;48.288;8.726;2023-12-07T00:34:02;1.80;99.90
2226;DHT22;1119;48.288;8.726;2023-12-07T00:36:30;1.90;99.90
2226;DHT22;1119;48.288;8.726;2023-12-07T00:38:58;1.70;99.90
2226;DHT22;1119;48.288;8.726;2023-12-07T00:41:26;1.70;99.90
2226;DHT22;1119;48.288;8.726;2023-12-07T00:43:53;1.60;99.90
2226;DHT22;1119;48.288;8.726;2023-12-07T00:46:20;1.60;99.90
2226;DHT22;1119;48.288;8.726;2023-12-07T00:48:48;1.60;99.90
2226;DHT22;1119;48.288;8.726;2023-12-07T00:51:15;1.50;99.90
2226;DHT22;1119;48.288;8.726;2023-12-07T00:53:43;1.50;99.90
2226;DHT22;1119;48.288;8.726;2023-12-07T00:56:12;1.50;99.90
2226;DHT22;1119;48.288;8.726;2023-12-07T00:58:39;1.50;99.90
2226;DHT22;1119;48.288;8.726;2023-12-07T01:01:06;1.50;99.90
2226;DHT22;1119;48.288;8.726;2023-12-07T01:03:34;1.50;99.90
2226;DHT22;1119;48.288;8.726;2023-12-07T01:06:01;1.50;99.90
2226;DHT22;1119;48.288;8.726;2023-12-07T01:08:29;1.50;99.90
2226;DHT22;1119;48.288;8.726;2023-12-07T01:10:56;1.50;99.90
2226;DHT22;1119;48.288;8.726;2023-12-07T01:13:25;1.50;99.90
2226;DHT22;1119;48.288;8.726;2023-12-07T01:15:53;1.40;99.90
2226;DHT22;1119;48.288;8.726;2023-12-07T01:18:21;1.40;99.90
2226;DHT22;1119;48.288;8.726;2023-12-07T01:20:48;1.30;99.90
2226;DHT22;1119;48.288;8.726;2023-12-07T01:23:16;1.20;99.90
2226;DHT22;1119;48.288;8.726;2023-12-07T01:25:43;1.20;99.90
2226;DHT22;1119;48.288;8.726;2023-12-07T01:28:11;1.20;99.90
2226;DHT22;1119;48.288;8.726;2023-12-07T01:30:39;1.20;99.90
2226;DHT22;1119;48.288;8.726;2023-12-07T01:33:06;1.30;99.90
2226;DHT22;1119;48.288;8.726;2023-12-07T01:35:34;1.20;99.90
2226;DHT22;1119;48.288;8.726;2023-12-07T01:38:01;1.20;99.90
2226;DHT22;1119;48.288;8.726;2023-12-07T01:40:28;1.20;99.90
2226;DHT22;1119;48.288;8.726;2023-12-07T01:42:56;1.20;99.90
2226;DHT22;1119;48.288;8.726;2023-12-07T01:45:23;1.20;99.90
2226;DHT22;1119;48.288;8.726;2023-12-07T01:47:52;1.20;99.90
2226;DHT22;1119;48.288;8.726;2023-12-07T01:50:22;1.20;99.90
2226;DHT22;1119;48.288;8.726;2023-12-07T01:52:54;1.20;99.90
2226;DHT22;1119;48.288;8.726;2023-12-07T01:55:23;1.20;99.90
2226;DHT22;1119;48.288;8.726;2023-12-07T01:57:52;1.10;99.90
2226;DHT22;1119;48.288;8.726;2023-12-07T02:00:19;1.10;99.90
2226;DHT22;1119;48.288;8.726;2023-12-07T02:02:47;1.10;99.90
2226;DHT22;1119;48.288;8.726;2023-12-07T02:05:16;1.10;99.90
2226;DHT22;1119;48.288;8.726;2023-12-07T02:07:44;1.10;99.90
2226;DHT22;1119;48.288;8.726;2023-12-07T02:10:11;1.10;99.90
2226;DHT22;1119;48.288;8.726;2023-12-07T02:12:39;1.10;99.90
2226;DHT22;1119;48.288;8.726;2023-12-07T02:15:07;1.10;99.90
2226;DHT22;1119;48.288;8.726;2023-12-07T02:17:43;1.10;99.90
2226;DHT22;1119;48.288;8.726;2023-12-07T02:20:21;1.20;99.90
2226;DHT22;1119;48.288;8.726;2023-12-07T02:22:55;1.20;99.90
2226;DHT22;1119;48.288;8.726;2023-12-07T02:25:26;1.20;99.90
2226;DHT22;1119;48.288;8.726;2023-12-07T02:27:57;1.00;99.90
2226;DHT22;1119;48.288;8.726;2023-12-07T02:30:25;1.10;99.90
2226;DHT22;1119;48.288;8.726;2023-12-07T02:32:52;1.10;99.90
2226;DHT22;1119;48.288;8.726;2023-12-07T02:35:19;1.10;99.90
2226;DHT22;1119;48.288;8.726;2023-12-07T02:37:48;1.10;99.90
2226;DHT22;1119;48.288;8.726;2023-12-07T02:40:18;1.10;99.90
2226;DHT22;1119;48.288;8.726;2023-12-07T02:42:52;1.00;99.90
2226;DHT22;1119;48.288;8.726;2023-12-07T02:45:22;1.00;99.90
2226;DHT22;1119;48.288;8.726;2023-12-07T02:47:51;1.00;99.90
2226;DHT22;1119;48.288;8.726;2023-12-07T02:50:19;1.00;99.90
2226;DHT22;1119;48.288;8.726;2023-12-07T02:52:46;1.10;99.90
2226;DHT22;1119;48.288;8.726;2023-12-07T02:55:13;1.10;99.90
2226;DHT22;1119;48.288;8.726;2023-12-07T02:57:41;1.10;99.90
2226;DHT22;1119;48.288;8.726;2023-12-07T03:03:19;1.10;99.90
2226;DHT22;1119;48.288;8.726;2023-12-07T03:05:46;1.10;99.90
2226;DHT22;1119;48.288;8.726;2023-12-07T03:08:13;1.00;99.90
2226;DHT22;1119;48.288;8.726;2023-12-07T03:10:41;1.00;99.90
2226;DHT22;1119;48.288;8.726;2023-12-07T03:13:08;1.00;99.90
2226;DHT22;1119;48.288;8.726;2023-12-07T03:15:36;1.10;99.90
2226;DHT22;1119;48.288;8.726;2023-12-07T03:18:03;1.00;99.90
2226;DHT22;1119;48.288;8.726;2023-12-07T03:20:32;1.00;99.90
2226;DHT22;1119;48.288;8.726;2023-12-07T03:23:00;1.00;99.90
2226;DHT22;1119;48.288;8.726;2023-12-07T03:25:28;0.90;99.90
2226;DHT22;1119;48.288;8.726;2023-12-07T03:27:55;1.00;99.90
2226;DHT22;1119;48.288;8.726;2023-12-07T03:30:22;1.00;99.90
2226;DHT22;1119;48.288;8.726;2023-12-07T03:32:49;1.10;99.90
2226;DHT22;1119;48.288;8.726;2023-12-07T03:35:17;1.10;99.90
2226;DHT22;1119;48.288;8.726;2023-12-07T03:37:45;1.00;99.90
2226;DHT22;1119;48.288;8.726;2023-12-07T03:40:13;1.10;99.90
2226;DHT22;1119;48.288;8.726;2023-12-07T03:42:40;1.10;99.90
2226;DHT22;1119;48.288;8.726;2023-12-07T03:45:08;1.10;99.90
2226;DHT22;1119;48.288;8.726;2023-12-07T03:52:10;1.00;99.90
2226;DHT22;1119;48.288;8.726;2023-12-07T03:54:38;1.00;99.90
2226;DHT22;1119;48.288;8.726;2023-12-07T03:57:06;1.00;99.90
2226;DHT22;1119;48.288;8.726;2023-12-07T03:59:35;1.00;99.90
2226;DHT22;1119;48.288;8.726;2023-12-07T04:02:03;0.90;99.90
2226;DHT22;1119;48.288;8.726;2023-12-07T04:04:33;0.80;99.90
2226;DHT22;1119;48.288;8.726;2023-12-07T04:07:01;0.80;99.90
2226;DHT22;1119;48.288;8.726;2023-12-07T04:09:28;0.80;99.90
2226;DHT22;1119;48.288;8.726;2023-12-07T04:11:58;0.70;99.90
2226;DHT22;1119;48.288;8.726;2023-12-07T04:14:25;0.60;99.90
2226;DHT22;1119;48.288;8.726;2023-12-07T04:16:52;0.60;99.90
2226;DHT22;1119;48.288;8.726;2023-12-07T04:19:20;0.60;99.90
2226;DHT22;1119;48.288;8.726;2023-12-07T04:21:47;0.50;99.90
2226;DHT22;1119;48.288;8.726;2023-12-07T04:24:14;0.50;99.90
2226;DHT22;1119;48.288;8.726;2023-12-07T04:26:42;0.50;99.90
2226;DHT22;1119;48.288;8.726;2023-12-07T04:29:10;0.60;99.90
2226;DHT22;1119;48.288;8.726;2023-12-07T04:31:38;0.40;99.90
2226;DHT22;1119;48.288;8.726;2023-12-07T04:34:05;0.40;99.90
2226;DHT22;1119;48.288;8.726;2023-12-07T04:36:36;0.40;99.90
2226;DHT22;1119;48.288;8.726;2023-12-07T04:39:03;0.40;99.90
2226;DHT22;1119;48.288;8.726;2023-12-07T04:41:32;0.30;99.90
2226;DHT22;1119;48.288;8.726;2023-12-07T04:43:59;0.30;99.90
2226;DHT22;1119;48.288;8.726;2023-12-07T04:46:28;0.20;99.90
2226;DHT22;1119;48.288;8.726;2023-12-07T04:48:55;0.20;99.90
2226;DHT22;1119;48.288;8.726;2023-12-07T04:51:25;0.10;99.90
2226;DHT22;1119;48.288;8.726;2023-12-07T04:53:52;0.10;99.90
2226;DHT22;1119;48.288;8.726;2023-12-07T04:56:20;0.00;99.90
2226;DHT22;1119;48.288;8.726;2023-12-07T04:58:49;0.00;99.90
2226;DHT22;1119;48.288;8.726;2023-12-07T05:01:17;-0.10;99.90
2226;DHT22;1119;48.288;8.726;2023-12-07T05:03:45;-0.10;99.90
2226;DHT22;1119;48.288;8.726;2023-12-07T05:06:13;-0.10;99.90
2226;DHT22;1119;48.288;8.726;2023-12-07T05:08:40;-0.10;99.90
2226;DHT22;1119;48.288;8.726;2023-12-07T05:11:09;-0.10;99.90
2226;DHT22;1119;48.288;8.726;2023-12-07T05:13:36;-0.10;99.90
2226;DHT22;1119;48.288;8.726;2023-12-07T05:16:04;-0.10;99.90
2226;DHT22;1119;48.288;8.726;2023-12-07T05:18:31;-0.10;99.90
2226;DHT22;1119;48.288;8.726;2023-12-07T05:21:00;-0.20;99.90
2226;DHT22;1119;48.288;8.726;2023-12-07T05:23:27;-0.20;99.90
2226;DHT22;1119;48.288;8.726;2023-12-07T05:25:54;-0.30;99.90
2226;DHT22;1119;48.288;8.726;2023-12-07T05:28:22;-0.30;99.90
2226;DHT22;1119;48.288;8.726;2023-12-07T05:30:49;-0.30;99.90
2226;DHT22;1119;48.288;8.726;2023-12-07T05:33:18;-0.40;99.90
2226;DHT22;1119;48.288;8.726;2023-12-07T05:35:45;-0.50;99.90
2226;DHT22;1119;48.288;8.726;2023-12-07T05:38:15;-0.50;99.90
2226;DHT22;1119;48.288;8.726;2023-12-07T05:40:42;-0.60;99.90
2226;DHT22;1119;48.288;8.726;2023-12-07T05:43:10;-0.60;99.90
2226;DHT22;1119;48.288;8.726;2023-12-07T05:45:37;-0.70;99.90
2226;DHT22;1119;48.288;8.726;2023-12-07T05:48:04;-0.70;99.90
2226;DHT22;1119;48.288;8.726;2023-12-07T05:50:31;-0.70;99.90
2226;DHT22;1119;48.288;8.726;2023-12-07T05:52:59;-0.60;99.90
2226;DHT22;1119;48.288;8.726;2023-12-07T05:55:27;-0.50;99.90
2226;DHT22;1119;48.288;8.726;2023-12-07T05:57:55;-0.50;99.90
2226;DHT22;1119;48.288;8.726;2023-12-07T06:00:22;-0.40;99.90
2226;DHT22;1119;48.288;8.726;2023-12-07T06:02:49;-0.40;99.90
2226;DHT22;1119;48.288;8.726;2023-12-07T06:05:17;-0.40;99.90
2226;DHT22;1119;48.288;8.726;2023-12-07T06:07:44;-0.30;99.90
2226;DHT22;1119;48.288;8.726;2023-12-07T06:10:11;-0.30;99.90
2226;DHT22;1119;48.288;8.726;2023-12-07T06:12:40;-0.30;99.90
2226;DHT22;1119;48.288;8.726;2023-12-07T06:15:09;-0.20;99.90
2226;DHT22;1119;48.288;8.726;2023-12-07T06:17:36;-0.20;99.90
2226;DHT22;1119;48.288;8.726;2023-12-07T06:20:05;-0.20;99.90
2226;DHT22;1119;48.288;8.726;2023-12-07T06:22:32;-0.20;99.90
2226;DHT22;1119;48.288;8.726;2023-12-07T06:25:00;-0.10;99.90
2226;DHT22;1119;48.288;8.726;2023-12-07T06:27:27;-0.10;99.90
2226;DHT22;1119;48.288;8.726;2023-12-07T06:29:56;-0.10;99.90
2226;DHT22;1119;48.288;8.726;2023-12-07T06:32:23;-0.10;99.90
2226;DHT22;1119;48.288;8.726;2023-12-07T06:34:51;0.00;99.90
2226;DHT22;1119;48.288;8.726;2023-12-07T06:37:18;0.00;99.90
2226;DHT22;1119;48.288;8.726;2023-12-07T06:39:46;0.00;99.90
2226;DHT22;1119;48.288;8.726;2023-12-07T06:42:14;0.00;99.90
2226;DHT22;1119;48.288;8.726;2023-12-07T06:44:43;0.10;99.90
2226;DHT22;1119;48.288;8.726;2023-12-07T06:47:14;0.10;99.90
2226;DHT22;1119;48.288;8.726;2023-12-07T06:49:41;0.10;99.90
2226;DHT22;1119;48.288;8.726;2023-12-07T06:52:08;0.10;99.90
2226;DHT22;1119;48.288;8.726;2023-12-07T06:54:36;0.10;99.90
2226;DHT22;1119;48.288;8.726;2023-12-07T06:57:04;0.10;99.90
2226;DHT22;1119;48.288;8.726;2023-12-07T06:59:32;0.10;99.90
2226;DHT22;1119;48.288;8.726;2023-12-07T07:02:00;0.00;99.90
2226;DHT22;1119;48.288;8.726;2023-12-07T07:04:29;0.00;99.90
2226;DHT22;1119;48.288;8.726;2023-12-07T07:06:56;0.00;99.90
2226;DHT22;1119;48.288;8.726;2023-12-07T07:09:24;0.00;99.90
2226;DHT22;1119;48.288;8.726;2023-12-07T07:11:51;0.00;99.90
2226;DHT22;1119;48.288;8.726;2023-12-07T07:14:19;0.00;99.90
2226;DHT22;1119;48.288;8.726;2023-12-07T07:16:46;0.10;99.90
2226;DHT22;1119;48.288;8.726;2023-12-07T07:19:14;0.10;99.90
2226;DHT22;1119;48.288;8.726;2023-12-07T07:21:44;0.10;99.90
2226;DHT22;1119;48.288;8.726;2023-12-07T07:24:11;0.20;99.90
2226;DHT22;1119;48.288;8.726;2023-12-07T07:26:39;0.20;99.90
2226;DHT22;1119;48.288;8.726;2023-12-07T07:29:06;0.20;99.90
2226;DHT22;1119;48.288;8.726;2023-12-07T07:31:33;0.20;99.90
2226;DHT22;1119;48.288;8.726;2023-12-07T07:34:02;0.20;99.90
2226;DHT22;1119;48.288;8.726;2023-12-07T07:36:30;0.20;99.90
2226;DHT22;1119;48.288;8.726;2023-12-07T07:38:59;0.20;99.90
2226;DHT22;1119;48.288;8.726;2023-12-07T07:41:26;0.20;99.90
2226;DHT22;1119;48.288;8.726;2023-12-07T07:43:54;0.20;99.90
2226;DHT22;1119;48.288;8.726;2023-12-07T07:46:21;0.30;99.90
2226;DHT22;1119;48.288;8.726;2023-12-07T07:48:49;0.20;99.90
2226;DHT22;1119;48.288;8.726;2023-12-07T07:51:16;0.20;99.90
2226;DHT22;1119;48.288;8.726;2023-12-07T07:53:43;0.20;99.90
2226;DHT22;1119;48.288;8.726;2023-12-07T07:56:12;0.30;99.90
2226;DHT22;1119;48.288;8.726;2023-12-07T07:58:39;0.20;99.90
2226;DHT22;1119;48.288;8.726;2023-12-07T08:01:07;0.30;99.90
2226;DHT22;1119;48.288;8.726;2023-12-07T08:03:34;0.40;99.90
2226;DHT22;1119;48.288;8.726;2023-12-07T08:06:02;0.40;99.90
2226;DHT22;1119;48.288;8.726;2023-12-07T08:08:29;0.40;99.90
2226;DHT22;1119;48.288;8.726;2023-12-07T08:10:57;0.40;99.90
2226;DHT22;1119;48.288;8.726;2023-12-07T08:13:25;0.50;99.90
2226;DHT22;1119;48.288;8.726;2023-12-07T08:15:53;0.40;99.90
2226;DHT22;1119;48.288;8.726;2023-12-07T08:18:20;0.50;99.90
2226;DHT22;1119;48.288;8.726;2023-12-07T08:20:48;0.50;99.90
2226;DHT22;1119;48.288;8.726;2023-12-07T08:23:15;0.60;99.90
2226;DHT22;1119;48.288;8.726;2023-12-07T08:25:43;0.70;99.90
2226;DHT22;1119;48.288;8.726;2023-12-07T08:28:10;0.70;99.90
2226;DHT22;1119;48.288;8.726;2023-12-07T08:30:39;0.80;99.90
2226;DHT22;1119;48.288;8.726;2023-12-07T08:33:06;0.90;99.90
2226;DHT22;1119;48.288;8.726;2023-12-07T08:35:33;0.90;99.90
2226;DHT22;1119;48.288;8.726;2023-12-07T08:38:01;1.10;99.90
2226;DHT22;1119;48.288;8.726;2023-12-07T08:40:28;1.10;99.90
2226;DHT22;1119;48.288;8.726;2023-12-07T08:42:55;1.10;99.90
2226;DHT22;1119;48.288;8.726;2023-12-07T08:45:23;1.10;99.90
2226;DHT22;1119;48.288;8.726;2023-12-07T08:47:51;1.10;99.90
2226;DHT22;1119;48.288;8.726;2023-12-07T08:50:19;1.10;99.90
2226;DHT22;1119;48.288;8.726;2023-12-07T08:52:46;1.10;99.90
2226;DHT22;1119;48.288;8.726;2023-12-07T08:55:13;1.10;99.90
2226;DHT22;1119;48.288;8.726;2023-12-07T08:57:42;1.20;99.90
2226;DHT22;1119;48.288;8.726;2023-12-07T09:00:10;1.10;99.90
2226;DHT22;1119;48.288;8.726;2023-12-07T09:02:38;1.10;99.90
2226;DHT22;1119;48.288;8.726;2023-12-07T09:05:08;1.10;99.90
2226;DHT22;1119;48.288;8.726;2023-12-07T09:07:35;1.10;99.90
2226;DHT22;1119;48.288;8.726;2023-12-07T09:10:03;1.20;99.90
2226;DHT22;1119;48.288;8.726;2023-12-07T09:12:32;1.20;99.90
2226;DHT22;1119;48.288;8.726;2023-12-07T09:15:01;1.30;99.90
2226;DHT22;1119;48.288;8.726;2023-12-07T09:17:29;1.30;99.90
2226;DHT22;1119;48.288;8.726;2023-12-07T09:19:56;1.50;99.90
2226;DHT22;1119;48.288;8.726;2023-12-07T09:22:25;1.60;99.90
2226;DHT22;1119;48.288;8.726;2023-12-07T09:24:52;1.70;99.90
2226;DHT22;1119;48.288;8.726;2023-12-07T09:27:19;1.80;99.90
2226;DHT22;1119;48.288;8.726;2023-12-07T09:29:47;1.80;99.90
2226;DHT22;1119;48.288;8.726;2023-12-07T09:32:14;1.90;99.90
2226;DHT22;1119;48.288;8.726;2023-12-07T09:34:41;1.90;99.90
2226;DHT22;1119;48.288;8.726;2023-12-07T09:37:09;1.90;99.90
2226;DHT22;1119;48.288;8.726;2023-12-07T09:39:38;1.90;99.90
2226;DHT22;1119;48.288;8.726;2023-12-07T09:42:06;2.00;99.90
2226;DHT22;1119;48.288;8.726;2023-12-07T09:44:33;2.00;99.90
2226;DHT22;1119;48.288;8.726;2023-12-07T09:47:00;2.10;99.90
2226;DHT22;1119;48.288;8.726;2023-12-07T09:49:29;2.10;99.90
2226;DHT22;1119;48.288;8.726;2023-12-07T09:51:58;2.10;99.90
2226;DHT22;1119;48.288;8.726;2023-12-07T09:54:26;2.10;99.90
2226;DHT22;1119;48.288;8.726;2023-12-07T09:56:56;2.10;99.90
2226;DHT22;1119;48.288;8.726;2023-12-07T09:59:23;2.20;99.90
2226;DHT22;1119;48.288;8.726;2023-12-07T10:01:50;2.20;99.90
2226;DHT22;1119;48.288;8.726;2023-12-07T10:04:19;2.20;99.90
2226;DHT22;1119;48.288;8.726;2023-12-07T10:06:48;2.20;99.90
2226;DHT22;1119;48.288;8.726;2023-12-07T10:09:16;2.30;99.90
2226;DHT22;1119;48.288;8.726;2023-12-07T10:11:45;2.30;99.90
2226;DHT22;1119;48.288;8.726;2023-12-07T10:14:14;2.40;99.90
2226;DHT22;1119;48.288;8.726;2023-12-07T10:16:52;2.60;99.90
2226;DHT22;1119;48.288;8.726;2023-12-07T10:19:21;2.90;99.90
2226;DHT22;1119;48.288;8.726;2023-12-07T10:21:49;3.10;99.90
2226;DHT22;1119;48.288;8.726;2023-12-07T10:24:18;3.40;99.90
2226;DHT22;1119;48.288;8.726;2023-12-07T10:26:46;3.50;99.90
2226;DHT22;1119;48.288;8.726;2023-12-07T10:29:17;3.60;99.90
2226;DHT22;1119;48.288;8.726;2023-12-07T10:31:45;3.70;99.90
2226;DHT22;1119;48.288;8.726;2023-12-07T10:34:17;3.80;99.90
2226;DHT22;1119;48.288;8.726;2023-12-07T10:36:46;4.00;99.90
2226;DHT22;1119;48.288;8.726;2023-12-07T10:39:15;4.10;99.90
2226;DHT22;1119;48.288;8.726;2023-12-07T10:41:43;4.30;99.90
2226;DHT22;1119;48.288;8.726;2023-12-07T10:44:13;4.40;99.90
2226;DHT22;1119;48.288;8.726;2023-12-07T10:46:43;4.50;99.90
2226;DHT22;1119;48.288;8.726;2023-12-07T10:49:15;4.70;99.90
2226;DHT22;1119;48.288;8.726;2023-12-07T10:51:49;4.80;99.60
2226;DHT22;1119;48.288;8.726;2023-12-07T10:54:22;4.80;99.10
2226;DHT22;1119;48.288;8.726;2023-12-07T10:56:51;4.70;99.20
2226;DHT22;1119;48.288;8.726;2023-12-07T10:59:19;4.60;99.40
2226;DHT22;1119;48.288;8.726;2023-12-07T11:01:51;4.40;99.80
2226;DHT22;1119;48.288;8.726;2023-12-07T11:04:20;4.20;99.90
2226;DHT22;1119;48.288;8.726;2023-12-07T11:06:50;4.20;99.90
2226;DHT22;1119;48.288;8.726;2023-12-07T11:09:22;4.10;99.90
2226;DHT22;1119;48.288;8.726;2023-12-07T11:11:55;4.10;99.90
2226;DHT22;1119;48.288;8.726;2023-12-07T11:14:27;4.00;99.90
2226;DHT22;1119;48.288;8.726;2023-12-07T11:16:56;4.10;99.90
2226;DHT22;1119;48.288;8.726;2023-12-07T11:19:48;4.10;99.90
2226;DHT22;1119;48.288;8.726;2023-12-07T11:22:15;4.00;99.90
2226;DHT22;1119;48.288;8.726;2023-12-07T11:24:52;4.00;99.90
2226;DHT22;1119;48.288;8.726;2023-12-07T11:27:21;4.10;99.90
2226;DHT22;1119;48.288;8.726;2023-12-07T11:29:51;4.10;99.90
2226;DHT22;1119;48.288;8.726;2023-12-07T11:32:18;4.10;99.90
2226;DHT22;1119;48.288;8.726;2023-12-07T11:34:45;4.10;99.90
2226;DHT22;1119;48.288;8.726;2023-12-07T11:37:15;4.10;99.90
2226;DHT22;1119;48.288;8.726;2023-12-07T11:39:43;4.00;99.90
2226;DHT22;1119;48.288;8.726;2023-12-07T11:42:14;4.00;99.90
2226;DHT22;1119;48.288;8.726;2023-12-07T11:44:43;4.00;99.90
2226;DHT22;1119;48.288;8.726;2023-12-07T11:47:16;4.00;99.90
2226;DHT22;1119;48.288;8.726;2023-12-07T11:49:44;4.00;99.90
2226;DHT22;1119;48.288;8.726;2023-12-07T11:52:13;4.00;99.90
2226;DHT22;1119;48.288;8.726;2023-12-07T11:54:44;4.00;99.90
2226;DHT22;1119;48.288;8.726;2023-12-07T11:57:12;4.10;99.90
2226;DHT22;1119;48.288;8.726;2023-12-07T11:59:40;4.10;99.90
2226;DHT22;1119;48.288;8.726;2023-12-07T12:02:10;4.20;99.90
2226;DHT22;1119;48.288;8.726;2023-12-07T12:04:40;4.20;99.90
2226;DHT22;1119;48.288;8.726;2023-12-07T12:07:07;4.30;99.90
2226;DHT22;1119;48.288;8.726;2023-12-07T12:09:34;4.40;99.90
2226;DHT22;1119;48.288;8.726;2023-12-07T12:12:02;4.40;99.90
2226;DHT22;1119;48.288;8.726;2023-12-07T12:14:29;4.40;99.90
2226;DHT22;1119;48.288;8.726;2023-12-07T12:16:57;4.40;99.90
2226;DHT22;1119;48.288;8.726;2023-12-07T12:19:24;4.50;99.90
2226;DHT22;1119;48.288;8.726;2023-12-07T12:21:54;4.60;99.90
2226;DHT22;1119;48.288;8.726;2023-12-07T12:24:21;4.40;99.10
2226;DHT22;1119;48.288;8.726;2023-12-07T12:26:48;4.40;99.10
2226;DHT22;1119;48.288;8.726;2023-12-07T12:29:17;4.40;99.10
2226;DHT22;1119;48.288;8.726;2023-12-07T12:31:44;4.50;99.00
2226;DHT22;1119;48.288;8.726;2023-12-07T12:34:12;4.50;98.70
2226;DHT22;1119;48.288;8.726;2023-12-07T12:36:39;4.50;97.80
2226;DHT22;1119;48.288;8.726;2023-12-07T12:39:08;4.40;95.60
2226;DHT22;1119;48.288;8.726;2023-12-07T12:41:36;4.40;95.80
2226;DHT22;1119;48.288;8.726;2023-12-07T12:44:05;4.20;94.80
2226;DHT22;1119;48.288;8.726;2023-12-07T12:46:34;4.20;95.20
2226;DHT22;1119;48.288;8.726;2023-12-07T12:49:03;4.10;95.30
2226;DHT22;1119;48.288;8.726;2023-12-07T12:51:30;4.00;93.10
2226;DHT22;1119;48.288;8.726;2023-12-07T12:53:59;3.90;92.40
2226;DHT22;1119;48.288;8.726;2023-12-07T12:56:28;3.80;92.10
2226;DHT22;1119;48.288;8.726;2023-12-07T12:58:56;3.90;92.40
2226;DHT22;1119;48.288;8.726;2023-12-07T13:01:23;3.80;91.30
2226;DHT22;1119;48.288;8.726;2023-12-07T13:03:50;3.80;91.10
2226;DHT22;1119;48.288;8.726;2023-12-07T13:06:18;3.70;90.70
2226;DHT22;1119;48.288;8.726;2023-12-07T13:08:46;3.80;91.10
2226;DHT22;1119;48.288;8.726;2023-12-07T13:11:18;3.80;90.60
2226;DHT22;1119;48.288;8.726;2023-12-07T13:13:47;3.90;91.10
2226;DHT22;1119;48.288;8.726;2023-12-07T13:16:15;3.90;91.10
2226;DHT22;1119;48.288;8.726;2023-12-07T13:18:42;4.00;90.40
2226;DHT22;1119;48.288;8.726;2023-12-07T13:21:10;4.00;90.00
2226;DHT22;1119;48.288;8.726;2023-12-07T13:23:37;4.10;90.80
2226;DHT22;1119;48.288;8.726;2023-12-07T13:26:05;4.20;90.80
2226;DHT22;1119;48.288;8.726;2023-12-07T13:28:33;4.20;90.90
2226;DHT22;1119;48.288;8.726;2023-12-07T13:31:01;4.20;90.60
2226;DHT22;1119;48.288;8.726;2023-12-07T13:33:29;4.30;91.00
2226;DHT22;1119;48.288;8.726;2023-12-07T13:35:56;4.10;91.20
2226;DHT22;1119;48.288;8.726;2023-12-07T13:38:26;4.10;90.80
2226;DHT22;1119;48.288;8.726;2023-12-07T13:40:56;4.00;91.30
2226;DHT22;1119;48.288;8.726;2023-12-07T13:43:23;4.00;91.40
2226;DHT22;1119;48.288;8.726;2023-12-07T13:45:51;4.10;90.90
2226;DHT22;1119;48.288;8.726;2023-12-07T13:48:20;4.10;90.80
2226;DHT22;1119;48.288;8.726;2023-12-07T13:50:47;4.00;91.10
2226;DHT22;1119;48.288;8.726;2023-12-07T13:53:16;4.00;91.40
2226;DHT22;1119;48.288;8.726;2023-12-07T13:55:45;4.00;91.60
2226;DHT22;1119;48.288;8.726;2023-12-07T13:58:12;4.10;92.10
2226;DHT22;1119;48.288;8.726;2023-12-07T14:00:39;4.10;92.50
2226;DHT22;1119;48.288;8.726;2023-12-07T14:03:11;4.20;92.80
2226;DHT22;1119;48.288;8.726;2023-12-07T14:05:39;4.20;93.20
2226;DHT22;1119;48.288;8.726;2023-12-07T14:08:07;4.20;93.50
2226;DHT22;1119;48.288;8.726;2023-12-07T14:10:34;4.20;93.70
2226;DHT22;1119;48.288;8.726;2023-12-07T14:13:05;4.20;93.90
2226;DHT22;1119;48.288;8.726;2023-12-07T14:15:32;4.10;94.00
2226;DHT22;1119;48.288;8.726;2023-12-07T14:18:01;4.10;94.20
2226;DHT22;1119;48.288;8.726;2023-12-07T14:20:28;4.10;94.60
2226;DHT22;1119;48.288;8.726;2023-12-07T14:22:58;4.10;94.80
2226;DHT22;1119;48.288;8.726;2023-12-07T14:25:30;4.10;94.70
2226;DHT22;1119;48.288;8.726;2023-12-07T14:27:57;4.10;94.90
2226;DHT22;1119;48.288;8.726;2023-12-07T14:30:24;4.20;95.10
2226;DHT22;1119;48.288;8.726;2023-12-07T14:32:52;4.20;95.00
2226;DHT22;1119;48.288;8.726;2023-12-07T14:35:18;4.20;95.00
2226;DHT22;1119;48.288;8.726;2023-12-07T14:37:45;4.20;95.00
2226;DHT22;1119;48.288;8.726;2023-12-07T14:40:15;4.20;95.10
2226;DHT22;1119;48.288;8.726;2023-12-07T14:42:43;4.00;95.40
2226;DHT22;1119;48.288;8.726;2023-12-07T14:45:12;4.00;95.80
2226;DHT22;1119;48.288;8.726;2023-12-07T14:47:40;4.00;95.90
2226;DHT22;1119;48.288;8.726;2023-12-07T14:50:08;4.00;95.70
2226;DHT22;1119;48.288;8.726;2023-12-07T14:52:36;4.00;95.90
2226;DHT22;1119;48.288;8.726;2023-12-07T14:55:05;4.00;95.90
2226;DHT22;1119;48.288;8.726;2023-12-07T14:57:35;4.00;95.90
2226;DHT22;1119;48.288;8.726;2023-12-07T15:00:03;4.00;95.80
2226;DHT22;1119;48.288;8.726;2023-12-07T15:02:33;3.90;95.60
2226;DHT22;1119;48.288;8.726;2023-12-07T15:05:01;3.80;96.10
2226;DHT22;1119;48.288;8.726;2023-12-07T15:07:30;3.60;96.20
2226;DHT22;1119;48.288;8.726;2023-12-07T15:09:58;3.50;96.20
2226;DHT22;1119;48.288;8.726;2023-12-07T15:12:26;3.50;96.40
2226;DHT22;1119;48.288;8.726;2023-12-07T15:14:55;3.30;96.70
2226;DHT22;1119;48.288;8.726;2023-12-07T15:17:24;3.20;97.10
2226;DHT22;1119;48.288;8.726;2023-12-07T15:19:54;3.10;96.80
2226;DHT22;1119;48.288;8.726;2023-12-07T15:22:21;3.10;96.70
2226;DHT22;1119;48.288;8.726;2023-12-07T15:24:49;3.00;96.10
2226;DHT22;1119;48.288;8.726;2023-12-07T15:27:16;3.00;96.20
2226;DHT22;1119;48.288;8.726;2023-12-07T15:29:44;2.80;96.30
2226;DHT22;1119;48.288;8.726;2023-12-07T15:32:21;2.50;96.70
2226;DHT22;1119;48.288;8.726;2023-12-07T15:34:48;2.70;97.30
2226;DHT22;1119;48.288;8.726;2023-12-07T15:37:16;2.70;97.30
2226;DHT22;1119;48.288;8.726;2023-12-07T15:39:43;2.80;97.20
2226;DHT22;1119;48.288;8.726;2023-12-07T15:42:11;2.90;97.20
2226;DHT22;1119;48.288;8.726;2023-12-07T15:44:38;3.00;97.10
2226;DHT22;1119;48.288;8.726;2023-12-07T15:47:05;3.00;96.70
2226;DHT22;1119;48.288;8.726;2023-12-07T15:49:36;3.10;96.50
2226;DHT22;1119;48.288;8.726;2023-12-07T15:52:04;3.00;96.40
2226;DHT22;1119;48.288;8.726;2023-12-07T15:54:32;3.00;96.60
2226;DHT22;1119;48.288;8.726;2023-12-07T15:57:00;3.00;96.60
2226;DHT22;1119;48.288;8.726;2023-12-07T15:59:27;3.00;96.50
2226;DHT22;1119;48.288;8.726;2023-12-07T16:01:54;2.80;96.20
2226;DHT22;1119;48.288;8.726;2023-12-07T16:04:21;2.80;96.50
2226;DHT22;1119;48.288;8.726;2023-12-07T16:06:50;2.80;96.60
2226;DHT22;1119;48.288;8.726;2023-12-07T16:09:17;2.80;96.70
2226;DHT22;1119;48.288;8.726;2023-12-07T16:11:44;2.90;96.80
2226;DHT22;1119;48.288;8.726;2023-12-07T16:14:12;2.80;96.70
2226;DHT22;1119;48.288;8.726;2023-12-07T16:16:39;2.80;97.00
2226;DHT22;1119;48.288;8.726;2023-12-07T16:19:07;2.80;96.80
2226;DHT22;1119;48.288;8.726;2023-12-07T16:21:35;2.70;97.00
2226;DHT22;1119;48.288;8.726;2023-12-07T16:24:05;2.70;97.10
2226;DHT22;1119;48.288;8.726;2023-12-07T16:26:36;2.80;97.30
2226;DHT22;1119;48.288;8.726;2023-12-07T16:29:04;2.70;97.10
2226;DHT22;1119;48.288;8.726;2023-12-07T16:31:31;2.70;97.20